Time;durP1;ratioP1;P1;durP2;ratioP2;P2;SDS_P1;SDS_P2;PMS_P1;PMS_P2;Temp;Humidity;BMP_temperature;BMP_pressure;BME280_temperature;BME280_humidity;BME280_pressure;Samples;Min_cycle;Max_cycle;Signal;HPM_P1;HPM_P2
2021/11/18 00:01:05;;;;;;;;;15.50;12.25;;;;;10.51;67.14;102817.97;5100683;27;46416;-92
2021/11/18 00:03:31;;;;;;;;;15.50;13.25;;;;;10.49;66.94;102815.31;5100423;27;45315;-93
2021/11/18 00:05:57;;;;;;;;;22.00;16.00;;;;;10.48;67.19;102818.81;5096258;27;45394;-91
2021/11/18 00:08:23;;;;;;;;;16.25;11.75;;;;;10.44;67.12;102817.06;5090626;27;45501;-90
2021/11/18 00:10:52;;;;;;;;;19.50;15.50;;;;;10.42;67.22;102816.19;5100237;27;45512;-91
2021/11/18 00:13:23;;;;;;;;;10.00;10.00;;;;;10.41;67.19;102823.19;5116431;27;45721;-92
2021/11/18 00:15:49;;;;;;;;;12.00;12.00;;;;;10.38;67.04;102822.28;5099021;27;45525;-92
2021/11/18 00:18:18;;;;;;;;;19.75;14.50;;;;;10.35;67.08;102818.78;5109833;27;45391;-92
2021/11/18 00:20:57;;;;;;;;;13.25;11.50;;;;;10.31;66.97;102809.16;5099916;27;48032;-91
2021/11/18 00:23:28;;;;;;;;;15.75;12.25;;;;;10.31;67.12;102816.16;5099027;27;45364;-92
2021/11/18 00:25:55;;;;;;;;;16.00;16.00;;;;;10.30;67.15;102823.16;5098507;27;45325;-94
2021/11/18 00:28:21;;;;;;;;;17.75;14.50;;;;;10.28;67.36;102824.03;5111263;27;46513;-92
2021/11/18 00:30:46;;;;;;;;;21.00;16.25;;;;;10.26;67.31;102828.41;5104753;27;46882;-94
2021/11/18 00:33:12;;;;;;;;;18.00;16.25;;;;;10.23;67.28;102821.41;5105759;27;46088;-96
2021/11/18 00:35:38;;;;;;;;;19.50;14.75;;;;;10.20;67.03;102827.53;5098055;27;45501;-95
2021/11/18 00:38:04;;;;;;;;;16.50;14.75;;;;;10.15;67.06;102813.50;5102859;27;46170;-95
2021/11/18 00:40:36;;;;;;;;;24.25;18.00;;;;;10.12;67.20;102803.84;5117635;27;47354;-95
2021/11/18 00:43:05;;;;;;;;;20.00;19.00;;;;;10.12;67.18;102800.38;5109988;27;45274;-94
2021/11/18 00:45:31;;;;;;;;;23.00;18.75;;;;;10.09;67.13;102790.72;5093860;27;45193;-95
2021/11/18 00:47:56;;;;;;;;;24.50;21.00;;;;;10.08;67.32;102791.59;5102966;27;46311;-95
2021/11/18 00:50:29;;;;;;;;;25.00;21.50;;;;;10.05;67.50;102783.69;5102760;27;47091;-95
2021/11/18 00:52:55;;;;;;;;;29.50;25.75;;;;;10.05;67.58;102785.47;5114882;27;45252;-95
2021/11/18 00:55:22;;;;;;;;;35.75;29.25;;;;;10.03;67.71;102785.44;5102164;27;45253;-96
2021/11/18 00:57:48;;;;;;;;;33.00;29.00;;;;;10.02;67.83;102787.19;5102087;27;46486;-88
2021/11/18 01:00:20;;;;;;;;;34.00;30.50;;;;;10.01;67.74;102789.81;5102910;27;45475;-88
2021/11/18 01:02:46;;;;;;;;;36.50;29.50;;;;;9.99;67.42;102787.19;5103219;27;45269;-88
2021/11/18 01:05:13;;;;;;;;;42.50;32.00;;;;;9.98;67.55;102793.31;5103452;27;45241;-93
2021/11/18 01:07:40;;;;;;;;;31.50;28.50;;;;;9.97;67.51;102796.84;5102505;27;46130;-93
2021/11/18 01:10:08;;;;;;;;;28.75;25.00;;;;;9.97;67.45;102788.94;5102421;27;47379;-92
2021/11/18 01:12:34;;;;;;;;;28.75;24.75;;;;;9.95;67.82;102789.81;5102535;27;45331;-93
2021/11/18 01:14:59;;;;;;;;;34.75;28.25;;;;;9.93;67.91;102789.78;5102186;27;45250;-94
2021/11/18 01:17:25;;;;;;;;;26.75;23.75;;;;;9.90;68.06;102790.66;5103205;27;46215;-91
2021/11/18 01:19:50;;;;;;;;;35.75;30.00;;;;;9.89;67.66;102791.56;5102826;27;46307;-91
2021/11/18 01:22:16;;;;;;;;;32.00;29.75;;;;;9.89;67.46;102804.69;5102831;27;45338;-91
2021/11/18 01:24:43;;;;;;;;;31.75;28.50;;;;;9.87;67.77;102806.44;5104221;27;45659;-91
2021/11/18 01:27:08;;;;;;;;;34.50;30.25;;;;;9.86;67.83;102817.78;5101324;27;45410;-91
2021/11/18 01:29:34;;;;;;;;;29.25;25.00;;;;;9.86;67.92;102815.16;5102695;27;45469;-91
2021/11/18 01:31:59;;;;;;;;;28.25;26.00;;;;;9.83;68.11;102815.16;5102044;27;45392;-91
2021/11/18 01:34:26;;;;;;;;;26.75;25.00;;;;;9.82;67.50;102810.78;5102863;27;45341;-91
2021/11/18 01:36:51;;;;;;;;;25.50;22.00;;;;;9.81;67.95;102808.13;5101194;27;45503;-89
2021/11/18 01:39:17;;;;;;;;;21.50;18.25;;;;;9.82;68.06;102815.16;5101854;27;45329;-89
2021/11/18 01:41:42;;;;;;;;;25.00;20.50;;;;;9.80;67.92;102812.53;5098286;27;45405;-88
2021/11/18 01:44:30;;;;;;;;;27.00;23.25;;;;;9.78;68.17;102811.63;5103549;27;45333;-88
2021/11/18 01:46:56;;;;;;;;;24.25;20.75;;;;;9.76;68.19;102813.38;5089116;27;45203;-89
2021/11/18 01:49:21;;;;;;;;;28.00;23.00;;;;;9.76;68.18;102819.50;5102009;27;45338;-89
2021/11/18 01:51:51;;;;;;;;;28.75;24.00;;;;;9.73;68.17;102816.00;5102305;27;45218;-89
2021/11/18 01:54:20;;;;;;;;;24.25;18.75;;;;;9.75;67.87;102822.13;5106691;27;45377;-90
2021/11/18 01:56:46;;;;;;;;;25.50;22.50;;;;;9.70;67.98;102808.09;5109481;27;47282;-89
2021/11/18 01:59:23;;;;;;;;;26.75;22.75;;;;;9.70;68.12;102821.25;5092281;27;46568;-89
2021/11/18 02:01:51;;;;;;;;;26.00;22.25;;;;;9.67;68.12;102829.97;5099783;27;45424;-92
2021/11/18 02:04:20;;;;;;;;;26.00;22.50;;;;;9.67;68.25;102836.13;5101180;27;45334;-93
2021/11/18 02:06:50;;;;;;;;;26.00;25.50;;;;;9.68;68.00;102842.22;5103045;27;45398;-96
2021/11/18 02:09:20;;;;;;;;;23.50;21.00;;;;;9.63;67.93;102833.47;5102088;27;47090;-96
2021/11/18 02:11:50;;;;;;;;;30.25;26.25;;;;;9.64;67.81;102840.47;5095117;27;45334;-96
2021/11/18 02:14:18;;;;;;;;;22.75;20.00;;;;;9.63;67.80;102830.84;5101694;27;45432;-96
2021/11/18 02:16:46;;;;;;;;;21.00;18.50;;;;;9.60;68.18;102834.34;5101143;27;46054;-91
2021/11/18 02:19:12;;;;;;;;;23.00;23.00;;;;;9.60;68.09;102836.06;5104165;27;46743;-90
2021/11/18 02:21:39;;;;;;;;;22.50;21.00;;;;;9.57;67.90;102829.06;5102071;27;45750;-89
2021/11/18 02:24:14;;;;;;;;;22.00;20.75;;;;;9.57;68.15;102836.94;5101832;27;45570;-92
2021/11/18 02:26:39;;;;;;;;;25.75;21.50;;;;;9.54;68.32;102829.91;5103011;27;46194;-94
2021/11/18 02:29:07;;;;;;;;;22.50;19.75;;;;;9.54;67.91;102839.53;5121902;27;47239;-92
2021/11/18 02:31:48;;;;;;;;;19.00;18.00;;;;;9.52;68.12;102836.03;5104367;27;45198;-91
2021/11/18 02:34:17;;;;;;;;;21.75;18.50;;;;;9.50;68.10;102833.41;5101908;27;45405;-88
2021/11/18 02:36:43;;;;;;;;;23.50;19.00;;;;;9.47;67.85;102833.38;5101635;27;45492;-89
2021/11/18 02:39:09;;;;;;;;;20.00;17.25;;;;;9.45;67.95;102830.75;5108910;27;45423;-92
2021/11/18 02:41:36;;;;;;;;;19.75;16.75;;;;;9.44;67.92;102830.72;5100280;27;45310;-92
2021/11/18 02:44:02;;;;;;;;;21.25;16.75;;;;;9.44;68.24;102833.34;5101935;27;45226;-92
2021/11/18 02:46:27;;;;;;;;;23.50;17.25;;;;;9.40;67.48;102826.34;5102016;27;45413;-91
2021/11/18 02:48:53;;;;;;;;;22.00;18.00;;;;;9.36;68.24;102828.06;5099943;27;46812;-91
2021/11/18 02:51:21;;;;;;;;;21.75;19.50;;;;;9.35;67.71;102821.06;5101573;27;45264;-91
2021/11/18 02:53:47;;;;;;;;;16.00;15.50;;;;;9.34;67.73;102821.91;5100115;27;45347;-92
2021/11/18 02:56:13;;;;;;;;;23.25;22.00;;;;;9.31;67.81;102824.56;5102036;27;45467;-92
2021/11/18 02:58:39;;;;;;;;;19.50;18.50;;;;;9.30;67.72;102833.28;5101478;27;45441;-92
2021/11/18 03:01:11;;;;;;;;;26.50;21.00;;;;;9.30;68.03;102846.41;5101729;27;45199;-94
2021/11/18 03:03:40;;;;;;;;;25.75;20.25;;;;;9.27;67.98;102854.25;5111006;27;45304;-92
2021/11/18 03:06:07;;;;;;;;;20.25;18.25;;;;;9.27;67.54;102851.63;5100493;27;46258;-95
2021/11/18 03:08:32;;;;;;;;;22.50;19.50;;;;;9.25;67.69;102862.13;5097252;27;48593;-94
2021/11/18 03:10:59;;;;;;;;;22.50;19.50;;;;;9.23;67.82;102861.25;5087907;27;45235;-94
2021/11/18 03:13:27;;;;;;;;;21.00;18.75;;;;;9.21;68.21;102858.59;5100508;27;45441;-92
2021/11/18 03:15:53;;;;;;;;;18.00;16.00;;;;;9.19;68.09;102859.44;5110115;27;46213;-92
2021/11/18 03:18:22;;;;;;;;;20.75;19.00;;;;;9.14;67.80;102859.41;5107829;27;46080;-92
2021/11/18 03:20:49;;;;;;;;;20.25;15.75;;;;;9.13;68.02;102865.53;5103218;27;45170;-92
2021/11/18 03:23:15;;;;;;;;;25.25;19.25;;;;;9.10;67.55;102857.63;5099773;27;45412;-90
2021/11/18 03:25:41;;;;;;;;;25.50;18.75;;;;;9.07;67.98;102852.34;5097109;27;46027;-89
2021/11/18 03:28:08;;;;;;;;;22.25;19.25;;;;;9.05;67.63;102865.47;5098839;27;47884;-87
2021/11/18 03:30:38;;;;;;;;;27.75;23.25;;;;;9.03;67.67;102854.09;5100990;27;45458;-88
2021/11/18 03:33:11;;;;;;;;;29.50;22.50;;;;;9.01;67.65;102855.84;5114973;27;45440;-88
2021/11/18 03:35:37;;;;;;;;;26.00;23.75;;;;;8.99;68.13;102857.53;5099378;27;46240;-88
2021/11/18 03:38:03;;;;;;;;;26.00;22.75;;;;;8.96;68.15;102854.91;5100004;27;46480;-89
2021/11/18 03:40:29;;;;;;;;;26.75;23.00;;;;;8.93;68.23;102863.63;5100946;27;45236;-88
2021/11/18 03:42:55;;;;;;;;;31.75;28.00;;;;;8.92;68.00;102872.34;5100766;27;45366;-93
2021/11/18 03:45:24;;;;;;;;;29.75;23.50;;;;;8.89;67.75;102861.81;5100146;27;47316;-93
2021/11/18 03:47:49;;;;;;;;;25.00;22.00;;;;;8.89;68.00;102872.31;5096017;27;47498;-89
2021/11/18 03:50:15;;;;;;;;;28.75;24.00;;;;;8.88;68.26;102870.59;5091549;27;45444;-87
2021/11/18 03:52:41;;;;;;;;;30.25;20.00;;;;;8.86;68.05;102861.81;5095589;27;45231;-87
2021/11/18 03:55:11;;;;;;;;;22.00;19.25;;;;;8.87;67.88;102864.44;5099772;27;45258;-90
2021/11/18 03:57:36;;;;;;;;;27.75;18.25;;;;;8.84;68.18;102858.31;5102199;27;46440;-90
2021/11/18 04:00:08;;;;;;;;;23.00;21.25;;;;;8.81;67.85;102861.78;5100521;27;45386;-90
2021/11/18 04:02:33;;;;;;;;;20.25;17.00;;;;;8.79;67.76;102863.50;5095986;27;45266;-90
2021/11/18 04:05:00;;;;;;;;;21.00;19.00;;;;;8.78;68.02;102873.13;5099923;27;45455;-90
2021/11/18 04:07:26;;;;;;;;;21.25;18.75;;;;;8.76;67.43;102877.50;5100161;27;45511;-91
2021/11/18 04:09:52;;;;;;;;;21.00;17.50;;;;;8.74;67.88;102878.34;5099788;27;45346;-92
2021/11/18 04:12:17;;;;;;;;;18.50;18.50;;;;;8.73;67.65;102871.31;5113411;27;45401;-92
2021/11/18 04:14:44;;;;;;;;;20.00;18.50;;;;;8.70;67.44;102869.53;5099879;27;46049;-93
2021/11/18 04:17:11;;;;;;;;;19.25;18.00;;;;;8.70;67.86;102869.53;5099528;27;48232;-92
2021/11/18 04:19:36;;;;;;;;;17.00;16.50;;;;;8.67;67.61;102880.00;5108513;27;45319;-90
2021/11/18 04:22:04;;;;;;;;;21.75;17.00;;;;;8.66;67.48;102886.13;5098626;27;45189;-92
2021/11/18 04:24:32;;;;;;;;;21.00;17.00;;;;;8.61;68.05;102893.94;5095034;27;45796;-89
2021/11/18 04:26:58;;;;;;;;;21.00;16.25;;;;;8.60;67.52;102893.91;5099851;27;45674;-84
2021/11/18 04:29:28;;;;;;;;;17.00;17.00;;;;;8.61;67.93;102898.31;5099938;27;45266;-85
2021/11/18 04:32:00;;;;;;;;;21.50;18.50;;;;;8.57;67.62;102905.19;5100254;27;45515;-86
2021/11/18 04:34:26;;;;;;;;;20.25;17.50;;;;;8.53;67.98;102896.44;5099821;27;45370;-86
2021/11/18 04:36:52;;;;;;;;;23.50;18.75;;;;;8.51;67.45;102903.41;5112378;27;45688;-86
2021/11/18 04:39:19;;;;;;;;;20.75;17.25;;;;;8.49;67.98;102899.91;5099729;27;45271;-89
2021/11/18 04:41:44;;;;;;;;;18.00;15.00;;;;;8.48;67.87;102902.50;5099869;27;45291;-91
2021/11/18 04:44:10;;;;;;;;;19.25;15.75;;;;;8.48;67.77;102902.50;5105846;27;45226;-90
2021/11/18 04:46:36;;;;;;;;;24.00;21.75;;;;;8.43;67.94;102905.94;5098466;27;47178;-91
2021/11/18 04:49:03;;;;;;;;;15.50;15.25;;;;;8.46;67.55;102912.09;5098501;27;45443;-90
2021/11/18 04:51:28;;;;;;;;;17.75;15.75;;;;;8.45;67.57;102913.81;5096224;27;45326;-90
2021/11/18 04:53:55;;;;;;;;;20.00;16.25;;;;;8.40;67.94;102920.75;5096076;27;45753;-90
2021/11/18 04:56:21;;;;;;;;;16.00;15.00;;;;;8.39;68.19;102929.50;5099521;27;45262;-91
2021/11/18 04:58:47;;;;;;;;;20.25;16.00;;;;;8.38;67.84;102914.63;5098569;27;45414;-90
2021/11/18 05:01:14;;;;;;;;;18.00;14.25;;;;;8.35;68.24;102927.66;5099717;27;45315;-88
2021/11/18 05:03:40;;;;;;;;;16.00;15.25;;;;;8.32;68.00;102929.41;5098294;27;46240;-86
2021/11/18 05:06:06;;;;;;;;;17.00;15.00;;;;;8.32;67.74;102939.88;5098234;27;48351;-86
2021/11/18 05:08:33;;;;;;;;;16.50;16.00;;;;;8.33;67.87;102930.28;5099402;27;45465;-86
2021/11/18 05:10:59;;;;;;;;;21.75;18.50;;;;;8.27;67.80;102931.06;5099726;27;45377;-84
2021/11/18 05:13:28;;;;;;;;;56.50;43.25;;;;;8.25;67.75;102927.56;5099551;27;45535;-83
2021/11/18 05:15:56;;;;;;;;;73.50;54.75;;;;;8.23;67.91;102934.53;5100959;27;46419;-83
2021/11/18 05:18:21;;;;;;;;;81.50;67.50;;;;;8.22;68.01;102932.78;5108991;27;45331;-83
2021/11/18 05:20:47;;;;;;;;;82.50;63.00;;;;;8.22;67.76;102933.66;5114083;27;45469;-83
2021/11/18 05:23:15;;;;;;;;;79.25;59.75;;;;;8.21;68.00;102937.16;5101486;27;45429;-86
2021/11/18 05:25:42;;;;;;;;;73.50;54.75;;;;;8.20;67.77;102932.75;5101164;27;45424;-87
2021/11/18 05:28:07;;;;;;;;;69.25;51.00;;;;;8.20;67.32;102929.25;5102771;27;45831;-87
2021/11/18 05:30:33;;;;;;;;;70.50;49.25;;;;;8.20;67.63;102931.88;5102851;27;45284;-88
2021/11/18 05:33:05;;;;;;;;;66.00;47.50;;;;;8.20;67.95;102939.72;5102582;27;45686;-87
2021/11/18 05:35:31;;;;;;;;;53.00;41.25;;;;;8.16;68.26;102944.06;5102677;27;45606;-87
2021/11/18 05:37:58;;;;;;;;;52.75;39.75;;;;;8.14;67.91;102947.53;5100613;27;45850;-85
2021/11/18 05:40:25;;;;;;;;;45.25;37.75;;;;;8.14;67.56;102939.66;5102784;27;45459;-86
2021/11/18 05:42:52;;;;;;;;;49.00;36.25;;;;;8.14;67.50;102944.91;5102256;27;45503;-88
2021/11/18 05:45:22;;;;;;;;;40.00;34.25;;;;;8.10;67.44;102944.84;5101435;27;46370;-87
2021/11/18 05:47:47;;;;;;;;;35.00;27.75;;;;;8.09;67.90;102942.22;5101984;27;45354;-93
2021/11/18 05:50:14;;;;;;;;;38.00;33.00;;;;;8.08;67.81;102951.81;5113951;27;45285;-93
2021/11/18 05:52:42;;;;;;;;;38.75;29.25;;;;;8.10;67.82;102952.72;5101602;27;46906;-94
2021/11/18 05:55:08;;;;;;;;;28.00;26.50;;;;;8.07;68.05;102944.84;5101191;27;48042;-91
2021/11/18 05:57:33;;;;;;;;;28.00;25.00;;;;;8.06;67.96;102945.69;5101217;27;45515;-91
2021/11/18 05:59:59;;;;;;;;;27.50;26.25;;;;;8.07;67.64;102949.19;5101397;27;45763;-89
2021/11/18 06:02:25;;;;;;;;;32.00;28.50;;;;;8.07;67.95;102960.56;5104785;27;46033;-96
2021/11/18 06:04:51;;;;;;;;;30.00;27.25;;;;;8.01;67.76;102956.94;5118345;27;47936;-95
2021/11/18 06:07:16;;;;;;;;;29.50;23.75;;;;;7.99;67.84;102962.16;5119736;27;45717;-89
2021/11/18 06:09:42;;;;;;;;;32.75;27.25;;;;;7.98;67.59;102965.63;5102401;27;45320;-90
2021/11/18 06:12:10;;;;;;;;;31.00;27.25;;;;;7.96;67.60;102962.13;5102270;27;45201;-88
2021/11/18 06:14:36;;;;;;;;;31.50;29.00;;;;;7.97;67.70;102963.91;5101258;27;46139;-88
2021/11/18 06:17:01;;;;;;;;;35.25;30.50;;;;;7.94;68.00;102963.84;5102060;27;45285;-90
2021/11/18 06:19:26;;;;;;;;;36.75;33.00;;;;;7.93;67.82;102976.06;5106532;27;45420;-89
2021/11/18 06:21:53;;;;;;;;;40.75;34.00;;;;;7.92;67.91;102970.81;5101458;27;45411;-89
2021/11/18 06:24:20;;;;;;;;;38.00;33.50;;;;;7.93;67.74;102962.06;5102036;27;45585;-91
2021/11/18 06:26:47;;;;;;;;;42.25;35.75;;;;;7.90;67.79;102967.28;5102188;27;45184;-92
2021/11/18 06:29:19;;;;;;;;;42.00;34.00;;;;;7.87;67.71;102971.63;5101020;27;45271;-89
2021/11/18 06:31:46;;;;;;;;;42.75;35.50;;;;;7.87;68.08;102970.75;5094715;27;45380;-89
2021/11/18 06:34:11;;;;;;;;;41.00;32.75;;;;;7.87;68.11;102962.88;5095619;27;45414;-89
2021/11/18 06:36:37;;;;;;;;;37.50;32.00;;;;;7.83;68.07;102969.81;5090461;27;45210;-89
2021/11/18 06:39:03;;;;;;;;;36.50;33.00;;;;;7.81;67.85;102971.50;5098940;27;45704;-87
2021/11/18 06:41:30;;;;;;;;;31.75;30.75;;;;;7.80;67.95;102976.75;5101736;27;45404;-86
2021/11/18 06:43:56;;;;;;;;;36.25;31.50;;;;;7.80;67.74;102982.88;5100078;27;46161;-86
2021/11/18 06:46:23;;;;;;;;;36.75;33.00;;;;;7.80;68.03;102985.50;5101864;27;45336;-86
2021/11/18 06:48:48;;;;;;;;;35.00;33.00;;;;;7.77;67.78;102985.44;5087998;27;45436;-86
2021/11/18 06:51:18;;;;;;;;;39.25;33.00;;;;;7.78;67.45;102989.78;5098509;27;45405;-87
2021/11/18 06:53:43;;;;;;;;;43.00;35.25;;;;;7.77;68.42;102995.91;5100969;27;46239;-89
2021/11/18 06:56:11;;;;;;;;;41.25;36.50;;;;;7.77;67.71;102990.66;5101403;27;45206;-89
2021/11/18 06:58:36;;;;;;;;;37.50;33.50;;;;;7.75;67.87;102995.84;5101499;27;45298;-89
2021/11/18 07:01:02;;;;;;;;;39.50;34.50;;;;;7.73;67.69;102994.09;5100335;27;45313;-89
2021/11/18 07:03:28;;;;;;;;;40.25;35.00;;;;;7.73;68.01;102996.72;5108254;27;48211;-88
2021/11/18 07:05:53;;;;;;;;;44.75;35.25;;;;;7.71;67.92;102998.41;5079150;27;47427;-89
2021/11/18 07:08:19;;;;;;;;;7.25;2.75;;;;;7.70;68.44;103001.91;5103146;27;45313;-89
2021/11/18 07:10:45;;;;;;;;;46.50;38.75;;;;;7.69;67.90;103003.63;5099579;27;46286;-89
2021/11/18 07:13:13;;;;;;;;;47.00;36.00;;;;;7.71;67.96;103008.88;5100869;27;46356;-89
2021/11/18 07:15:39;;;;;;;;;41.00;36.75;;;;;7.70;67.72;103002.78;5099837;27;46031;-89
2021/11/18 07:18:04;;;;;;;;;46.75;38.25;;;;;7.69;68.00;103011.47;5100994;27;45481;-89
2021/11/18 07:20:30;;;;;;;;;38.50;35.25;;;;;7.71;68.76;103009.78;5096051;27;45512;-89
2021/11/18 07:22:55;;;;;;;;;46.50;36.00;;;;;7.70;68.36;103013.25;5096510;27;47061;-88
2021/11/18 07:25:24;;;;;;;;;48.25;36.00;;;;;7.71;68.41;103016.72;5101853;27;45421;-88
2021/11/18 07:27:50;;;;;;;;;47.50;38.50;;;;;7.69;68.52;103015.84;5100650;27;45271;-92
2021/11/18 07:30:16;;;;;;;;;45.50;39.50;;;;;7.74;68.94;103014.19;5100977;27;45245;-89
2021/11/18 07:32:43;;;;;;;;;50.50;40.50;;;;;7.73;68.91;103009.81;5099078;27;46328;-89
2021/11/18 07:35:08;;;;;;;;;43.25;36.00;;;;;7.75;69.20;103011.56;5116810;27;45164;-87
2021/11/18 07:37:35;;;;;;;;;53.25;42.25;;;;;7.80;69.23;103021.25;5098323;27;45524;-88
2021/11/18 07:40:03;;;;;;;;;53.50;40.25;;;;;7.81;69.40;103015.13;5098261;27;46696;-88
2021/11/18 07:42:28;;;;;;;;;54.50;44.25;;;;;7.81;69.28;103016.03;5090584;27;45373;-90
2021/11/18 07:44:54;;;;;;;;;58.75;44.75;;;;;7.86;69.47;103014.38;5100022;27;45434;-88
2021/11/18 07:47:19;;;;;;;;;55.75;44.25;;;;;7.87;69.26;103010.91;5100582;27;45203;-87
2021/11/18 07:49:44;;;;;;;;;53.00;42.75;;;;;7.89;69.18;103013.53;5100414;27;45380;-89
2021/11/18 07:52:10;;;;;;;;;35.50;28.00;;;;;7.90;68.82;103010.06;5081132;27;45717;-89
2021/11/18 07:54:35;;;;;;;;;50.50;42.75;;;;;7.95;69.50;103012.75;5088646;27;45612;-90
2021/11/18 07:57:01;;;;;;;;;51.50;42.00;;;;;7.97;69.58;103019.78;5093206;27;45386;-89
2021/11/18 07:59:27;;;;;;;;;53.25;41.75;;;;;7.98;69.65;103011.03;5093707;27;47241;-89
2021/11/18 08:01:54;;;;;;;;;52.25;41.00;;;;;8.03;69.55;103018.09;5085993;27;47964;-91
2021/11/18 08:04:20;;;;;;;;;51.75;42.00;;;;;8.05;69.58;103019.88;5097587;27;45561;-92
2021/11/18 08:06:46;;;;;;;;;54.00;42.25;;;;;8.07;69.54;103020.78;5098967;27;45398;-91
2021/11/18 08:09:12;;;;;;;;;54.50;43.75;;;;;8.10;69.58;103026.06;5097660;27;47775;-90
2021/11/18 08:11:47;;;;;;;;;53.00;43.00;;;;;8.14;69.36;103028.72;5098595;27;47164;-91
2021/11/18 08:14:14;;;;;;;;;52.00;44.25;;;;;8.14;69.94;103028.72;5099249;27;45349;-89
2021/11/18 08:16:41;;;;;;;;;52.25;42.75;;;;;8.16;69.42;103034.88;5100160;27;45392;-89
2021/11/18 08:19:07;;;;;;;;;53.00;42.00;;;;;8.16;69.71;103040.09;5111174;27;46243;-90
2021/11/18 08:21:34;;;;;;;;;49.00;41.00;;;;;8.20;69.80;103040.16;5096017;27;46010;-89
2021/11/18 08:24:00;;;;;;;;;52.25;42.50;;;;;8.25;69.66;103039.38;5099612;27;46113;-88
2021/11/18 08:26:25;;;;;;;;;54.00;42.25;;;;;8.27;69.02;103041.13;5099491;27;45462;-89
2021/11/18 08:28:52;;;;;;;;;53.50;41.50;;;;;8.31;69.40;103045.56;5097714;27;45737;-88
2021/11/18 08:31:18;;;;;;;;;47.00;39.00;;;;;8.32;69.43;103041.22;5098398;27;48761;-89
2021/11/18 08:33:44;;;;;;;;;49.50;40.50;;;;;8.35;69.25;103048.22;5102781;27;45399;-88
2021/11/18 08:36:10;;;;;;;;;49.75;39.75;;;;;8.37;69.55;103036.03;5098646;27;45447;-88
2021/11/18 08:38:36;;;;;;;;;51.75;41.75;;;;;8.39;68.92;103039.56;5098791;27;45252;-88
2021/11/18 08:41:05;;;;;;;;;52.00;42.00;;;;;8.42;69.35;103050.09;5110170;27;45289;-88
2021/11/18 08:43:33;;;;;;;;;52.25;42.00;;;;;8.46;69.58;103051.88;5089191;27;45496;-87
2021/11/18 08:46:00;;;;;;;;;53.50;42.00;;;;;8.47;69.11;103045.75;5095128;27;45361;-88
2021/11/18 08:48:26;;;;;;;;;55.50;43.00;;;;;8.48;69.03;103044.91;5093242;27;45291;-88
2021/11/18 08:50:53;;;;;;;;;53.25;44.25;;;;;8.52;69.43;103051.09;5102667;27;46782;-88
2021/11/18 08:53:21;;;;;;;;;53.00;41.50;;;;;8.52;68.94;103057.19;5107149;27;45407;-88
2021/11/18 08:55:47;;;;;;;;;57.25;43.75;;;;;8.58;69.26;103063.38;5105223;27;45548;-89
2021/11/18 08:58:15;;;;;;;;;51.75;42.00;;;;;8.59;69.39;103059.94;5102296;27;45469;-89
2021/11/18 09:00:53;;;;;;;;;52.75;41.50;;;;;8.62;69.23;103062.56;5102672;27;46579;-90
2021/11/18 09:03:22;;;;;;;;;54.50;41.25;;;;;8.64;69.13;103060.88;5094886;27;45951;-90
2021/11/18 09:05:49;;;;;;;;;52.00;42.00;;;;;8.66;69.23;103062.66;5101188;27;45436;-89
2021/11/18 09:08:15;;;;;;;;;56.00;44.25;;;;;8.70;68.79;103060.94;5098610;27;47046;-89
2021/11/18 09:10:41;;;;;;;;;49.00;39.50;;;;;8.70;68.60;103050.47;5099596;27;47537;-89
2021/11/18 09:13:08;;;;;;;;;51.50;43.00;;;;;8.75;69.04;103058.38;5098907;27;45798;-90
2021/11/18 09:15:35;;;;;;;;;53.25;42.00;;;;;8.80;68.78;103061.06;5092646;27;46037;-88
2021/11/18 09:18:02;;;;;;;;;54.50;43.25;;;;;8.80;68.90;103050.56;5105592;27;45979;-88
2021/11/18 09:20:30;;;;;;;;;56.00;42.75;;;;;8.84;69.24;103057.63;5103981;27;47284;-88
2021/11/18 09:22:59;;;;;;;;;54.25;43.50;;;;;8.86;68.95;103058.53;5099407;27;45833;-88
2021/11/18 09:25:28;;;;;;;;;57.25;45.00;;;;;8.89;69.04;103063.78;5110341;27;45367;-88
2021/11/18 09:27:55;;;;;;;;;57.75;46.00;;;;;8.93;69.30;103070.84;5086127;27;46024;-88
2021/11/18 09:30:23;;;;;;;;;48.50;40.25;;;;;8.99;69.14;103070.91;5091020;27;46495;-88
2021/11/18 09:32:49;;;;;;;;;58.75;46.00;;;;;9.02;69.09;103061.28;5100012;27;45366;-88
2021/11/18 09:35:19;;;;;;;;;47.50;38.75;;;;;9.06;69.12;103065.75;5099643;27;45373;-89
2021/11/18 09:37:44;;;;;;;;;51.00;41.25;;;;;9.11;69.57;103062.28;5101961;27;46629;-89
2021/11/18 09:40:15;;;;;;;;;53.75;43.25;;;;;9.17;69.34;103069.34;5099206;27;47237;-89
2021/11/18 09:43:19;;;;;;;;;52.75;42.25;;;;;9.22;69.40;103078.16;5097494;27;46187;-88
2021/11/18 09:45:55;;;;;;;;;52.75;42.50;;;;;9.28;69.09;103073.84;5101956;27;45291;-88
2021/11/18 09:48:27;;;;;;;;;57.75;45.00;;;;;9.34;69.39;103074.78;5101844;27;45746;-88
2021/11/18 09:51:15;;;;;;;;;52.75;42.00;;;;;9.38;69.31;103065.19;5092838;27;46258;-88
2021/11/18 09:54:15;;;;;;;;;53.50;43.25;;;;;9.43;69.40;103066.09;5092239;27;47407;-88
2021/11/18 09:56:55;;;;;;;;;56.00;43.00;;;;;9.49;69.32;103067.03;5074343;27;45615;-89
2021/11/18 09:59:58;;;;;;;;;53.75;43.00;;;;;9.55;69.11;103067.97;5099169;27;46262;-88
2021/11/18 10:02:49;;;;;;;;;53.00;43.00;;;;;9.60;68.84;103069.75;5100447;27;45617;-87
2021/11/18 10:05:34;;;;;;;;;53.75;43.50;;;;;9.64;68.99;103072.41;5100513;27;45478;-89
2021/11/18 10:08:10;;;;;;;;;48.75;41.00;;;;;9.66;68.90;103065.44;5100044;27;45276;-89
2021/11/18 10:10:46;;;;;;;;;53.25;43.50;;;;;9.71;68.56;103072.44;5101188;27;45271;-88
2021/11/18 10:13:20;;;;;;;;;54.00;43.50;;;;;9.76;68.62;103076.00;5098434;27;46216;-89
2021/11/18 10:15:50;;;;;;;;;51.50;42.50;;;;;9.78;68.59;103083.03;5091673;27;45540;-89
2021/11/18 10:18:26;;;;;;;;;53.00;42.50;;;;;9.81;68.68;103076.94;5099979;27;45525;-89
2021/11/18 10:20:59;;;;;;;;;51.50;42.25;;;;;9.83;68.52;103076.97;5087545;27;45298;-90
2021/11/18 10:23:25;;;;;;;;;55.50;44.25;;;;;9.86;68.67;103084.84;5091940;27;46391;-89
2021/11/18 10:25:59;;;;;;;;;51.50;41.50;;;;;9.93;68.82;103083.13;5113071;27;45377;-90
2021/11/18 10:28:24;;;;;;;;;54.50;42.75;;;;;9.97;68.26;103084.94;5091845;27;45188;-89
2021/11/18 10:30:56;;;;;;;;;52.00;43.25;;;;;10.02;68.22;103091.09;5101544;27;45379;-88
2021/11/18 10:33:28;;;;;;;;;54.00;43.50;;;;;10.02;67.98;103078.81;5090471;27;46220;-87
2021/11/18 10:35:53;;;;;;;;;55.00;43.25;;;;;10.08;68.29;103083.25;5106645;27;46068;-87
2021/11/18 10:38:18;;;;;;;;;53.33;42.33;;;;;10.13;68.20;103096.41;5099952;27;45448;-87
2021/11/18 10:41:04;;;;;;;;;51.50;42.75;;;;;10.16;68.07;103085.06;5101396;27;45384;-88
2021/11/18 10:43:33;;;;;;;;;50.75;41.75;;;;;10.16;67.94;103090.31;5101591;27;46355;-87
2021/11/18 10:46:23;;;;;;;;;54.25;44.00;;;;;10.21;68.24;103093.84;5092372;27;45577;-87
2021/11/18 10:49:17;;;;;;;;;50.00;41.00;;;;;10.22;67.97;103100.88;5098335;27;45421;-87
2021/11/18 10:51:54;;;;;;;;;54.75;45.00;;;;;10.23;67.88;103103.50;5114903;27;46673;-87
2021/11/18 10:54:37;;;;;;;;;52.25;42.75;;;;;10.27;67.74;103096.53;5101610;27;45601;-88
2021/11/18 10:57:04;;;;;;;;;54.75;44.75;;;;;10.30;67.84;103100.91;5105669;27;45933;-87
2021/11/18 10:59:41;;;;;;;;;55.25;44.25;;;;;10.33;67.84;103104.44;5110805;27;45420;-87
2021/11/18 11:02:17;;;;;;;;;57.00;45.50;;;;;10.35;67.75;103091.31;5101077;27;45459;-87
2021/11/18 11:04:46;;;;;;;;;55.75;43.50;;;;;10.35;67.88;103096.56;5101061;27;45643;-87
2021/11/18 11:07:11;;;;;;;;;58.00;46.50;;;;;10.38;67.83;103095.69;5099054;27;45344;-87
2021/11/18 11:09:41;;;;;;;;;59.50;45.00;;;;;10.40;67.84;103096.59;5101372;27;45412;-87
2021/11/18 11:12:28;;;;;;;;;55.50;44.50;;;;;10.44;67.83;103098.38;5101182;27;45440;-87
2021/11/18 11:15:15;;;;;;;;;54.25;42.50;;;;;10.43;67.88;103097.50;5101182;27;46520;-87
2021/11/18 11:18:16;;;;;;;;;55.25;44.25;;;;;10.43;68.03;103093.97;5106085;27;45892;-87
2021/11/18 11:21:10;;;;;;;;;54.25;44.25;;;;;10.45;68.13;103092.22;5087464;27;45428;-87
2021/11/18 11:24:02;;;;;;;;;54.25;42.25;;;;;10.49;68.02;103096.66;5084538;27;47615;-88